sensor_id;sensor_type;location;lat;lon;timestamp;temperature;humidity
14101;DHT22;7127;49.372;8.166;2023-06-26T00:02:12;27.00;33.20
14101;DHT22;7127;49.372;8.166;2023-06-26T00:04:39;26.90;33.10
14101;DHT22;7127;49.372;8.166;2023-06-26T00:07:06;26.90;33.20
14101;DHT22;7127;49.372;8.166;2023-06-26T00:09:33;27.00;34.00
14101;DHT22;7127;49.372;8.166;2023-06-26T00:12:00;26.90;33.30
14101;DHT22;7127;49.372;8.166;2023-06-26T00:14:28;26.90;33.40
14101;DHT22;7127;49.372;8.166;2023-06-26T00:16:55;26.90;33.60
14101;DHT22;7127;49.372;8.166;2023-06-26T00:19:22;26.80;33.50
14101;DHT22;7127;49.372;8.166;2023-06-26T00:21:48;26.80;33.60
14101;DHT22;7127;49.372;8.166;2023-06-26T00:24:15;26.90;33.70
14101;DHT22;7127;49.372;8.166;2023-06-26T00:26:42;26.80;33.70
14101;DHT22;7127;49.372;8.166;2023-06-26T00:29:09;26.70;33.70
14101;DHT22;7127;49.372;8.166;2023-06-26T00:31:37;26.70;33.80
14101;DHT22;7127;49.372;8.166;2023-06-26T00:34:05;26.80;33.90
14101;DHT22;7127;49.372;8.166;2023-06-26T00:36:32;26.70;34.50
14101;DHT22;7127;49.372;8.166;2023-06-26T00:38:59;26.70;34.00
14101;DHT22;7127;49.372;8.166;2023-06-26T00:41:26;26.60;34.00
14101;DHT22;7127;49.372;8.166;2023-06-26T00:43:53;26.60;34.10
14101;DHT22;7127;49.372;8.166;2023-06-26T00:46:20;26.60;34.80
14101;DHT22;7127;49.372;8.166;2023-06-26T00:48:48;26.60;34.20
14101;DHT22;7127;49.372;8.166;2023-06-26T00:51:15;26.60;34.30
14101;DHT22;7127;49.372;8.166;2023-06-26T00:53:42;26.60;34.30
14101;DHT22;7127;49.372;8.166;2023-06-26T00:56:09;26.60;34.40
14101;DHT22;7127;49.372;8.166;2023-06-26T00:58:36;26.50;34.40
14101;DHT22;7127;49.372;8.166;2023-06-26T01:01:03;26.40;34.40
14101;DHT22;7127;49.372;8.166;2023-06-26T01:03:31;26.40;34.50
14101;DHT22;7127;49.372;8.166;2023-06-26T01:06:00;26.50;34.60
14101;DHT22;7127;49.372;8.166;2023-06-26T01:08:27;26.50;34.80
14101;DHT22;7127;49.372;8.166;2023-06-26T01:10:55;26.30;34.70
14101;DHT22;7127;49.372;8.166;2023-06-26T01:13:23;26.40;34.80
14101;DHT22;7127;49.372;8.166;2023-06-26T01:15:51;26.40;34.90
14101;DHT22;7127;49.372;8.166;2023-06-26T01:18:19;26.20;34.80
14101;DHT22;7127;49.372;8.166;2023-06-26T01:20:46;26.40;35.00
14101;DHT22;7127;49.372;8.166;2023-06-26T01:23:22;26.30;35.10
14101;DHT22;7127;49.372;8.166;2023-06-26T01:26:10;26.30;35.10
14101;DHT22;7127;49.372;8.166;2023-06-26T01:28:41;26.30;35.30
14101;DHT22;7127;49.372;8.166;2023-06-26T01:31:08;26.30;35.20
14101;DHT22;7127;49.372;8.166;2023-06-26T01:33:35;26.30;35.20
14101;DHT22;7127;49.372;8.166;2023-06-26T01:36:03;26.30;35.30
14101;DHT22;7127;49.372;8.166;2023-06-26T01:38:30;26.20;35.40
14101;DHT22;7127;49.372;8.166;2023-06-26T01:40:57;26.10;35.30
14101;DHT22;7127;49.372;8.166;2023-06-26T01:43:29;26.20;35.40
14101;DHT22;7127;49.372;8.166;2023-06-26T01:46:02;26.20;36.30
14101;DHT22;7127;49.372;8.166;2023-06-26T01:48:34;26.20;35.60
14101;DHT22;7127;49.372;8.166;2023-06-26T01:51:04;26.20;35.70
14101;DHT22;7127;49.372;8.166;2023-06-26T01:53:35;26.10;35.60
14101;DHT22;7127;49.372;8.166;2023-06-26T01:56:07;26.10;35.70
14101;DHT22;7127;49.372;8.166;2023-06-26T01:58:37;26.10;35.80
14101;DHT22;7127;49.372;8.166;2023-06-26T02:01:06;26.10;35.90
14101;DHT22;7127;49.372;8.166;2023-06-26T02:03:33;26.10;35.90
14101;DHT22;7127;49.372;8.166;2023-06-26T02:05:59;26.10;35.90
14101;DHT22;7127;49.372;8.166;2023-06-26T02:08:26;26.10;36.00
14101;DHT22;7127;49.372;8.166;2023-06-26T02:10:53;26.10;36.00
14101;DHT22;7127;49.372;8.166;2023-06-26T02:13:20;26.00;36.00
14101;DHT22;7127;49.372;8.166;2023-06-26T02:15:48;26.00;36.20
14101;DHT22;7127;49.372;8.166;2023-06-26T02:18:15;26.00;36.20
14101;DHT22;7127;49.372;8.166;2023-06-26T02:20:43;25.90;36.30
14101;DHT22;7127;49.372;8.166;2023-06-26T02:23:10;25.80;36.20
14101;DHT22;7127;49.372;8.166;2023-06-26T02:25:38;25.80;36.30
14101;DHT22;7127;49.372;8.166;2023-06-26T02:28:04;25.70;36.50
14101;DHT22;7127;49.372;8.166;2023-06-26T02:30:31;25.80;36.70
14101;DHT22;7127;49.372;8.166;2023-06-26T02:33:00;25.60;36.80
14101;DHT22;7127;49.372;8.166;2023-06-26T02:35:27;25.50;36.80
14101;DHT22;7127;49.372;8.166;2023-06-26T02:37:53;25.50;36.90
14101;DHT22;7127;49.372;8.166;2023-06-26T02:40:21;25.50;37.00
14101;DHT22;7127;49.372;8.166;2023-06-26T02:42:47;25.40;37.10
14101;DHT22;7127;49.372;8.166;2023-06-26T02:45:14;25.40;37.10
14101;DHT22;7127;49.372;8.166;2023-06-26T02:47:41;25.40;37.20
14101;DHT22;7127;49.372;8.166;2023-06-26T02:50:09;25.40;37.20
14101;DHT22;7127;49.372;8.166;2023-06-26T02:52:36;25.40;37.40
14101;DHT22;7127;49.372;8.166;2023-06-26T02:55:04;25.30;37.40
14101;DHT22;7127;49.372;8.166;2023-06-26T02:57:31;25.40;37.50
14101;DHT22;7127;49.372;8.166;2023-06-26T02:59:58;25.40;37.60
14101;DHT22;7127;49.372;8.166;2023-06-26T03:02:25;25.30;37.50
14101;DHT22;7127;49.372;8.166;2023-06-26T03:04:52;25.30;37.60
14101;DHT22;7127;49.372;8.166;2023-06-26T03:07:20;25.20;37.60
14101;DHT22;7127;49.372;8.166;2023-06-26T03:09:47;25.20;37.70
14101;DHT22;7127;49.372;8.166;2023-06-26T03:12:14;25.20;37.80
14101;DHT22;7127;49.372;8.166;2023-06-26T03:14:40;25.10;37.80
14101;DHT22;7127;49.372;8.166;2023-06-26T03:17:07;25.10;38.10
14101;DHT22;7127;49.372;8.166;2023-06-26T03:19:34;25.00;38.00
14101;DHT22;7127;49.372;8.166;2023-06-26T03:22:01;25.00;38.20
14101;DHT22;7127;49.372;8.166;2023-06-26T03:24:30;24.90;38.20
14101;DHT22;7127;49.372;8.166;2023-06-26T03:26:57;24.90;38.30
14101;DHT22;7127;49.372;8.166;2023-06-26T03:29:24;24.80;38.30
14101;DHT22;7127;49.372;8.166;2023-06-26T03:31:50;24.80;38.30
14101;DHT22;7127;49.372;8.166;2023-06-26T03:34:17;24.80;38.50
14101;DHT22;7127;49.372;8.166;2023-06-26T03:36:44;24.70;38.50
14101;DHT22;7127;49.372;8.166;2023-06-26T03:39:11;24.70;38.60
14101;DHT22;7127;49.372;8.166;2023-06-26T03:41:39;24.70;38.60
14101;DHT22;7127;49.372;8.166;2023-06-26T03:44:06;24.60;38.70
14101;DHT22;7127;49.372;8.166;2023-06-26T03:46:33;24.60;38.80
14101;DHT22;7127;49.372;8.166;2023-06-26T03:49:00;24.60;38.80
14101;DHT22;7127;49.372;8.166;2023-06-26T03:51:26;24.60;39.00
14101;DHT22;7127;49.372;8.166;2023-06-26T03:53:53;24.50;39.00
14101;DHT22;7127;49.372;8.166;2023-06-26T03:56:20;24.50;39.10
14101;DHT22;7127;49.372;8.166;2023-06-26T03:58:48;24.50;39.20
14101;DHT22;7127;49.372;8.166;2023-06-26T04:01:15;24.50;39.20
14101;DHT22;7127;49.372;8.166;2023-06-26T04:03:42;24.50;39.30
14101;DHT22;7127;49.372;8.166;2023-06-26T04:06:08;24.50;39.30
14101;DHT22;7127;49.372;8.166;2023-06-26T04:08:35;24.50;39.30
14101;DHT22;7127;49.372;8.166;2023-06-26T04:11:02;24.60;39.60
14101;DHT22;7127;49.372;8.166;2023-06-26T04:13:29;24.60;39.50
14101;DHT22;7127;49.372;8.166;2023-06-26T04:15:57;24.50;39.40
14101;DHT22;7127;49.372;8.166;2023-06-26T04:18:24;24.50;39.50
14101;DHT22;7127;49.372;8.166;2023-06-26T04:21:05;24.40;39.50
14101;DHT22;7127;49.372;8.166;2023-06-26T04:23:33;24.40;39.90
14101;DHT22;7127;49.372;8.166;2023-06-26T04:26:00;24.40;39.80
14101;DHT22;7127;49.372;8.166;2023-06-26T04:28:28;24.40;39.90
14101;DHT22;7127;49.372;8.166;2023-06-26T04:30:54;24.40;40.00
14101;DHT22;7127;49.372;8.166;2023-06-26T04:33:23;24.40;40.10
14101;DHT22;7127;49.372;8.166;2023-06-26T04:35:49;24.50;40.10
14101;DHT22;7127;49.372;8.166;2023-06-26T04:38:17;24.50;40.20
14101;DHT22;7127;49.372;8.166;2023-06-26T04:40:43;24.60;40.30
14101;DHT22;7127;49.372;8.166;2023-06-26T04:43:10;24.60;40.30
14101;DHT22;7127;49.372;8.166;2023-06-26T04:45:37;24.70;40.30
14101;DHT22;7127;49.372;8.166;2023-06-26T04:48:04;24.60;40.30
14101;DHT22;7127;49.372;8.166;2023-06-26T04:50:33;24.60;40.30
14101;DHT22;7127;49.372;8.166;2023-06-26T04:53:01;24.70;40.30
14101;DHT22;7127;49.372;8.166;2023-06-26T04:55:28;24.60;40.30
14101;DHT22;7127;49.372;8.166;2023-06-26T04:57:56;24.70;40.40
14101;DHT22;7127;49.372;8.166;2023-06-26T05:00:22;24.70;40.40
14101;DHT22;7127;49.372;8.166;2023-06-26T05:02:50;24.70;40.50
14101;DHT22;7127;49.372;8.166;2023-06-26T05:05:24;24.80;40.70
14101;DHT22;7127;49.372;8.166;2023-06-26T05:07:54;24.90;40.80
14101;DHT22;7127;49.372;8.166;2023-06-26T05:10:21;24.90;41.00
14101;DHT22;7127;49.372;8.166;2023-06-26T05:12:48;25.00;41.60
14101;DHT22;7127;49.372;8.166;2023-06-26T05:15:15;25.10;41.20
14101;DHT22;7127;49.372;8.166;2023-06-26T05:17:41;25.10;41.30
14101;DHT22;7127;49.372;8.166;2023-06-26T05:20:10;25.20;41.40
14101;DHT22;7127;49.372;8.166;2023-06-26T05:22:38;25.20;41.30
14101;DHT22;7127;49.372;8.166;2023-06-26T05:25:09;25.30;41.40
14101;DHT22;7127;49.372;8.166;2023-06-26T05:27:37;25.40;41.60
14101;DHT22;7127;49.372;8.166;2023-06-26T05:30:04;25.40;41.50
14101;DHT22;7127;49.372;8.166;2023-06-26T05:32:34;25.40;41.50
14101;DHT22;7127;49.372;8.166;2023-06-26T05:35:02;25.50;41.60
14101;DHT22;7127;49.372;8.166;2023-06-26T05:37:29;25.50;41.60
14101;DHT22;7127;49.372;8.166;2023-06-26T05:39:58;25.60;41.50
14101;DHT22;7127;49.372;8.166;2023-06-26T05:42:26;25.60;41.50
14101;DHT22;7127;49.372;8.166;2023-06-26T05:44:53;25.60;41.50
14101;DHT22;7127;49.372;8.166;2023-06-26T05:47:20;25.80;41.50
14101;DHT22;7127;49.372;8.166;2023-06-26T05:49:47;25.70;41.30
14101;DHT22;7127;49.372;8.166;2023-06-26T05:52:14;25.80;41.20
14101;DHT22;7127;49.372;8.166;2023-06-26T05:54:42;25.80;41.10
14101;DHT22;7127;49.372;8.166;2023-06-26T05:57:09;25.80;41.10
14101;DHT22;7127;49.372;8.166;2023-06-26T05:59:39;25.80;41.10
14101;DHT22;7127;49.372;8.166;2023-06-26T06:02:07;25.80;41.00
14101;DHT22;7127;49.372;8.166;2023-06-26T06:04:33;25.80;41.00
14101;DHT22;7127;49.372;8.166;2023-06-26T06:07:00;25.90;41.10
14101;DHT22;7127;49.372;8.166;2023-06-26T06:09:28;25.90;41.10
14101;DHT22;7127;49.372;8.166;2023-06-26T06:11:54;25.70;41.10
14101;DHT22;7127;49.372;8.166;2023-06-26T06:14:21;25.90;41.20
14101;DHT22;7127;49.372;8.166;2023-06-26T06:16:49;26.00;41.40
14101;DHT22;7127;49.372;8.166;2023-06-26T06:19:16;26.00;41.40
14101;DHT22;7127;49.372;8.166;2023-06-26T06:21:43;26.10;41.30
14101;DHT22;7127;49.372;8.166;2023-06-26T06:24:09;26.10;41.20
14101;DHT22;7127;49.372;8.166;2023-06-26T06:26:36;26.10;41.30
14101;DHT22;7127;49.372;8.166;2023-06-26T06:29:03;26.10;41.30
14101;DHT22;7127;49.372;8.166;2023-06-26T06:31:30;26.30;41.50
14101;DHT22;7127;49.372;8.166;2023-06-26T06:33:58;26.30;41.50
14101;DHT22;7127;49.372;8.166;2023-06-26T06:36:25;26.30;41.40
14101;DHT22;7127;49.372;8.166;2023-06-26T06:38:52;26.40;41.40
14101;DHT22;7127;49.372;8.166;2023-06-26T06:41:19;26.40;41.40
14101;DHT22;7127;49.372;8.166;2023-06-26T06:43:46;26.60;41.50
14101;DHT22;7127;49.372;8.166;2023-06-26T06:46:13;26.70;41.50
14101;DHT22;7127;49.372;8.166;2023-06-26T06:48:40;26.70;41.30
14101;DHT22;7127;49.372;8.166;2023-06-26T06:51:08;26.80;41.30
14101;DHT22;7127;49.372;8.166;2023-06-26T06:53:35;26.90;41.30
14101;DHT22;7127;49.372;8.166;2023-06-26T06:56:02;27.00;41.20
14101;DHT22;7127;49.372;8.166;2023-06-26T06:58:28;27.10;41.10
14101;DHT22;7127;49.372;8.166;2023-06-26T07:00:56;27.30;41.10
14101;DHT22;7127;49.372;8.166;2023-06-26T07:03:23;27.30;41.10
14101;DHT22;7127;49.372;8.166;2023-06-26T07:05:50;27.40;41.00
14101;DHT22;7127;49.372;8.166;2023-06-26T07:08:18;27.60;41.10
14101;DHT22;7127;49.372;8.166;2023-06-26T07:10:44;27.60;41.00
14101;DHT22;7127;49.372;8.166;2023-06-26T07:13:11;27.70;41.00
14101;DHT22;7127;49.372;8.166;2023-06-26T07:15:38;27.90;41.60
14101;DHT22;7127;49.372;8.166;2023-06-26T07:18:05;28.00;40.90
14101;DHT22;7127;49.372;8.166;2023-06-26T07:20:32;28.10;40.80
14101;DHT22;7127;49.372;8.166;2023-06-26T07:22:59;28.20;40.60
14101;DHT22;7127;49.372;8.166;2023-06-26T07:25:27;28.40;40.60
14101;DHT22;7127;49.372;8.166;2023-06-26T07:27:53;28.40;40.40
14101;DHT22;7127;49.372;8.166;2023-06-26T07:30:20;28.50;40.50
14101;DHT22;7127;49.372;8.166;2023-06-26T07:32:47;28.70;40.40
14101;DHT22;7127;49.372;8.166;2023-06-26T07:35:14;28.70;40.10
14101;DHT22;7127;49.372;8.166;2023-06-26T07:37:41;28.80;40.60
14101;DHT22;7127;49.372;8.166;2023-06-26T07:40:09;29.00;39.80
14101;DHT22;7127;49.372;8.166;2023-06-26T07:42:37;29.20;39.80
14101;DHT22;7127;49.372;8.166;2023-06-26T07:45:06;29.30;39.50
14101;DHT22;7127;49.372;8.166;2023-06-26T07:47:36;29.50;39.40
14101;DHT22;7127;49.372;8.166;2023-06-26T07:50:03;29.60;39.10
14101;DHT22;7127;49.372;8.166;2023-06-26T07:52:30;29.70;38.80
14101;DHT22;7127;49.372;8.166;2023-06-26T07:54:57;29.70;38.60
14101;DHT22;7127;49.372;8.166;2023-06-26T07:57:24;29.80;38.30
14101;DHT22;7127;49.372;8.166;2023-06-26T07:59:52;30.00;38.10
14101;DHT22;7127;49.372;8.166;2023-06-26T08:02:19;30.00;37.90
14101;DHT22;7127;49.372;8.166;2023-06-26T08:04:46;30.10;37.80
14101;DHT22;7127;49.372;8.166;2023-06-26T08:07:12;30.10;37.70
14101;DHT22;7127;49.372;8.166;2023-06-26T08:09:40;30.10;37.50
14101;DHT22;7127;49.372;8.166;2023-06-26T08:12:07;30.20;37.40
14101;DHT22;7127;49.372;8.166;2023-06-26T08:14:34;30.20;37.30
14101;DHT22;7127;49.372;8.166;2023-06-26T08:17:02;30.30;37.30
14101;DHT22;7127;49.372;8.166;2023-06-26T08:19:29;30.30;37.30
14101;DHT22;7127;49.372;8.166;2023-06-26T08:21:56;30.30;37.30
14101;DHT22;7127;49.372;8.166;2023-06-26T08:24:22;30.40;37.40
14101;DHT22;7127;49.372;8.166;2023-06-26T08:26:49;30.50;37.40
14101;DHT22;7127;49.372;8.166;2023-06-26T08:29:16;30.50;37.20
14101;DHT22;7127;49.372;8.166;2023-06-26T08:31:43;30.40;37.10
14101;DHT22;7127;49.372;8.166;2023-06-26T08:34:11;30.40;36.90
14101;DHT22;7127;49.372;8.166;2023-06-26T08:36:38;30.50;36.90
14101;DHT22;7127;49.372;8.166;2023-06-26T08:39:05;30.50;36.90
14101;DHT22;7127;49.372;8.166;2023-06-26T08:41:34;30.50;36.90
14101;DHT22;7127;49.372;8.166;2023-06-26T08:44:01;30.60;37.00
14101;DHT22;7127;49.372;8.166;2023-06-26T08:46:29;30.50;37.00
14101;DHT22;7127;49.372;8.166;2023-06-26T08:48:59;30.60;37.10
14101;DHT22;7127;49.372;8.166;2023-06-26T08:51:29;30.50;37.00
14101;DHT22;7127;49.372;8.166;2023-06-26T08:53:57;30.50;37.10
14101;DHT22;7127;49.372;8.166;2023-06-26T08:56:27;30.50;37.20
14101;DHT22;7127;49.372;8.166;2023-06-26T08:58:54;30.50;37.20
14101;DHT22;7127;49.372;8.166;2023-06-26T09:01:22;30.60;37.30
14101;DHT22;7127;49.372;8.166;2023-06-26T09:03:50;30.60;37.40
14101;DHT22;7127;49.372;8.166;2023-06-26T09:06:17;30.60;37.50
14101;DHT22;7127;49.372;8.166;2023-06-26T09:08:45;30.70;37.50
14101;DHT22;7127;49.372;8.166;2023-06-26T09:11:12;30.70;37.40
14101;DHT22;7127;49.372;8.166;2023-06-26T09:13:39;30.70;37.30
14101;DHT22;7127;49.372;8.166;2023-06-26T09:16:07;30.70;37.20
14101;DHT22;7127;49.372;8.166;2023-06-26T09:18:35;30.70;37.30
14101;DHT22;7127;49.372;8.166;2023-06-26T09:21:06;30.70;37.30
14101;DHT22;7127;49.372;8.166;2023-06-26T09:23:34;30.60;37.30
14101;DHT22;7127;49.372;8.166;2023-06-26T09:26:03;30.60;37.30
14101;DHT22;7127;49.372;8.166;2023-06-26T09:28:30;30.70;37.50
14101;DHT22;7127;49.372;8.166;2023-06-26T09:31:01;30.80;37.60
14101;DHT22;7127;49.372;8.166;2023-06-26T09:33:33;30.90;37.70
14101;DHT22;7127;49.372;8.166;2023-06-26T09:36:04;30.80;37.70
14101;DHT22;7127;49.372;8.166;2023-06-26T09:38:31;30.80;37.70
14101;DHT22;7127;49.372;8.166;2023-06-26T09:40:58;30.80;37.80
14101;DHT22;7127;49.372;8.166;2023-06-26T09:43:26;30.80;37.80
14101;DHT22;7127;49.372;8.166;2023-06-26T09:45:54;30.90;37.90
14101;DHT22;7127;49.372;8.166;2023-06-26T09:48:24;30.90;37.90
14101;DHT22;7127;49.372;8.166;2023-06-26T09:50:50;31.00;37.80
14101;DHT22;7127;49.372;8.166;2023-06-26T09:53:17;31.00;37.70
14101;DHT22;7127;49.372;8.166;2023-06-26T09:55:44;31.10;37.70
14101;DHT22;7127;49.372;8.166;2023-06-26T09:58:12;31.20;37.60
14101;DHT22;7127;49.372;8.166;2023-06-26T10:00:42;31.30;37.60
14101;DHT22;7127;49.372;8.166;2023-06-26T10:03:10;31.30;37.60
14101;DHT22;7127;49.372;8.166;2023-06-26T10:05:38;31.30;37.60
14101;DHT22;7127;49.372;8.166;2023-06-26T10:08:05;31.40;38.30
14101;DHT22;7127;49.372;8.166;2023-06-26T10:10:33;31.50;37.70
14101;DHT22;7127;49.372;8.166;2023-06-26T10:13:06;31.40;37.40
14101;DHT22;7127;49.372;8.166;2023-06-26T10:15:35;31.50;37.30
14101;DHT22;7127;49.372;8.166;2023-06-26T10:18:05;31.50;37.10
14101;DHT22;7127;49.372;8.166;2023-06-26T10:20:32;31.60;37.00
14101;DHT22;7127;49.372;8.166;2023-06-26T10:23:01;31.60;37.00
14101;DHT22;7127;49.372;8.166;2023-06-26T10:25:29;31.70;37.10
14101;DHT22;7127;49.372;8.166;2023-06-26T10:27:59;31.70;37.00
14101;DHT22;7127;49.372;8.166;2023-06-26T10:30:29;31.70;36.90
14101;DHT22;7127;49.372;8.166;2023-06-26T10:32:57;31.80;36.90
14101;DHT22;7127;49.372;8.166;2023-06-26T10:35:27;31.80;36.80
14101;DHT22;7127;49.372;8.166;2023-06-26T10:38:00;31.70;36.70
14101;DHT22;7127;49.372;8.166;2023-06-26T10:40:33;31.90;36.80
14101;DHT22;7127;49.372;8.166;2023-06-26T10:43:06;31.80;36.80
14101;DHT22;7127;49.372;8.166;2023-06-26T10:45:34;32.00;36.80
14101;DHT22;7127;49.372;8.166;2023-06-26T10:48:02;32.00;36.70
14101;DHT22;7127;49.372;8.166;2023-06-26T10:50:32;32.00;36.60
14101;DHT22;7127;49.372;8.166;2023-06-26T10:53:11;32.10;36.40
14101;DHT22;7127;49.372;8.166;2023-06-26T10:55:42;32.20;36.20
14101;DHT22;7127;49.372;8.166;2023-06-26T10:58:32;32.20;36.20
14101;DHT22;7127;49.372;8.166;2023-06-26T11:01:16;32.20;35.90
14101;DHT22;7127;49.372;8.166;2023-06-26T11:03:46;32.30;35.80
14101;DHT22;7127;49.372;8.166;2023-06-26T11:06:18;32.20;35.70
14101;DHT22;7127;49.372;8.166;2023-06-26T11:08:46;32.30;35.50
14101;DHT22;7127;49.372;8.166;2023-06-26T11:11:13;32.30;35.30
14101;DHT22;7127;49.372;8.166;2023-06-26T11:13:40;32.30;35.30
14101;DHT22;7127;49.372;8.166;2023-06-26T11:16:08;32.30;35.10
14101;DHT22;7127;49.372;8.166;2023-06-26T11:18:35;32.30;35.00
14101;DHT22;7127;49.372;8.166;2023-06-26T11:21:06;32.40;35.00
14101;DHT22;7127;49.372;8.166;2023-06-26T11:23:35;32.50;34.70
14101;DHT22;7127;49.372;8.166;2023-06-26T11:26:15;32.40;34.40
14101;DHT22;7127;49.372;8.166;2023-06-26T11:28:49;32.50;34.40
14101;DHT22;7127;49.372;8.166;2023-06-26T11:31:26;32.50;34.10
14101;DHT22;7127;49.372;8.166;2023-06-26T11:33:55;32.50;33.90
14101;DHT22;7127;49.372;8.166;2023-06-26T11:36:23;32.50;33.70
14101;DHT22;7127;49.372;8.166;2023-06-26T11:38:55;32.50;33.50
14101;DHT22;7127;49.372;8.166;2023-06-26T11:41:23;32.60;33.30
14101;DHT22;7127;49.372;8.166;2023-06-26T11:43:50;32.60;33.50
14101;DHT22;7127;49.372;8.166;2023-06-26T11:46:19;32.60;32.90
14101;DHT22;7127;49.372;8.166;2023-06-26T11:48:46;32.60;33.00
14101;DHT22;7127;49.372;8.166;2023-06-26T11:51:12;32.60;33.00
14101;DHT22;7127;49.372;8.166;2023-06-26T11:53:41;32.60;32.90
14101;DHT22;7127;49.372;8.166;2023-06-26T11:56:10;32.60;32.50
14101;DHT22;7127;49.372;8.166;2023-06-26T11:58:56;32.70;32.40
14101;DHT22;7127;49.372;8.166;2023-06-26T12:01:24;32.80;32.30
14101;DHT22;7127;49.372;8.166;2023-06-26T12:03:53;32.70;32.30
14101;DHT22;7127;49.372;8.166;2023-06-26T12:06:20;32.80;32.00
14101;DHT22;7127;49.372;8.166;2023-06-26T12:08:47;32.80;31.80
14101;DHT22;7127;49.372;8.166;2023-06-26T12:11:17;32.90;31.90
14101;DHT22;7127;49.372;8.166;2023-06-26T12:13:44;32.90;31.80
14101;DHT22;7127;49.372;8.166;2023-06-26T12:16:12;33.00;31.70
14101;DHT22;7127;49.372;8.166;2023-06-26T12:18:42;32.90;31.60
14101;DHT22;7127;49.372;8.166;2023-06-26T12:21:27;32.90;31.40
14101;DHT22;7127;49.372;8.166;2023-06-26T12:23:58;33.00;31.30
14101;DHT22;7127;49.372;8.166;2023-06-26T12:26:28;33.00;31.20
14101;DHT22;7127;49.372;8.166;2023-06-26T12:29:02;33.00;31.10
14101;DHT22;7127;49.372;8.166;2023-06-26T12:31:29;33.00;30.70
14101;DHT22;7127;49.372;8.166;2023-06-26T12:33:57;33.00;30.80
14101;DHT22;7127;49.372;8.166;2023-06-26T12:36:24;33.10;30.80
14101;DHT22;7127;49.372;8.166;2023-06-26T12:38:53;33.10;30.80
14101;DHT22;7127;49.372;8.166;2023-06-26T12:41:20;33.10;30.80
14101;DHT22;7127;49.372;8.166;2023-06-26T12:43:56;33.20;31.20
14101;DHT22;7127;49.372;8.166;2023-06-26T12:46:33;33.30;31.20
14101;DHT22;7127;49.372;8.166;2023-06-26T12:49:00;33.30;31.00
14101;DHT22;7127;49.372;8.166;2023-06-26T12:51:28;33.30;30.90
14101;DHT22;7127;49.372;8.166;2023-06-26T12:53:55;33.40;30.80
14101;DHT22;7127;49.372;8.166;2023-06-26T12:56:22;33.40;31.10
14101;DHT22;7127;49.372;8.166;2023-06-26T12:58:49;33.40;30.50
14101;DHT22;7127;49.372;8.166;2023-06-26T13:01:17;33.50;30.60
14101;DHT22;7127;49.372;8.166;2023-06-26T13:03:45;33.50;30.40
14101;DHT22;7127;49.372;8.166;2023-06-26T13:06:12;33.50;30.30
14101;DHT22;7127;49.372;8.166;2023-06-26T13:08:40;33.60;30.10
14101;DHT22;7127;49.372;8.166;2023-06-26T13:11:07;33.60;29.90
14101;DHT22;7127;49.372;8.166;2023-06-26T13:13:33;33.60;29.90
14101;DHT22;7127;49.372;8.166;2023-06-26T13:16:00;33.60;29.70
14101;DHT22;7127;49.372;8.166;2023-06-26T13:18:29;33.60;29.10
14101;DHT22;7127;49.372;8.166;2023-06-26T13:20:55;33.60;28.70
14101;DHT22;7127;49.372;8.166;2023-06-26T13:23:22;33.50;28.90
14101;DHT22;7127;49.372;8.166;2023-06-26T13:25:49;33.50;29.10
14101;DHT22;7127;49.372;8.166;2023-06-26T13:28:17;33.60;29.30
14101;DHT22;7127;49.372;8.166;2023-06-26T13:30:43;33.50;28.80
14101;DHT22;7127;49.372;8.166;2023-06-26T13:33:10;33.50;28.60
14101;DHT22;7127;49.372;8.166;2023-06-26T13:35:38;33.50;28.20
14101;DHT22;7127;49.372;8.166;2023-06-26T13:38:05;33.50;28.60
14101;DHT22;7127;49.372;8.166;2023-06-26T13:40:32;33.40;27.90
14101;DHT22;7127;49.372;8.166;2023-06-26T13:42:59;33.40;28.10
14101;DHT22;7127;49.372;8.166;2023-06-26T13:45:27;33.40;27.90
14101;DHT22;7127;49.372;8.166;2023-06-26T13:47:53;33.40;27.30
14101;DHT22;7127;49.372;8.166;2023-06-26T13:50:20;33.40;27.00
14101;DHT22;7127;49.372;8.166;2023-06-26T13:52:48;33.40;27.40
14101;DHT22;7127;49.372;8.166;2023-06-26T13:55:15;33.40;27.20
14101;DHT22;7127;49.372;8.166;2023-06-26T13:57:42;33.50;27.00
14101;DHT22;7127;49.372;8.166;2023-06-26T14:00:10;33.50;27.00
14101;DHT22;7127;49.372;8.166;2023-06-26T14:02:37;33.50;27.30
14101;DHT22;7127;49.372;8.166;2023-06-26T14:05:05;33.40;26.60
14101;DHT22;7127;49.372;8.166;2023-06-26T14:07:32;33.50;26.60
14101;DHT22;7127;49.372;8.166;2023-06-26T14:10:00;33.60;26.60
14101;DHT22;7127;49.372;8.166;2023-06-26T14:12:26;33.60;27.10
14101;DHT22;7127;49.372;8.166;2023-06-26T14:14:53;33.60;26.70
14101;DHT22;7127;49.372;8.166;2023-06-26T14:17:20;33.70;26.70
14101;DHT22;7127;49.372;8.166;2023-06-26T14:19:49;33.70;27.10
14101;DHT22;7127;49.372;8.166;2023-06-26T14:22:16;33.80;26.30
14101;DHT22;7127;49.372;8.166;2023-06-26T14:24:43;33.70;26.10
14101;DHT22;7127;49.372;8.166;2023-06-26T14:27:11;33.80;26.30
14101;DHT22;7127;49.372;8.166;2023-06-26T14:29:38;33.90;26.00
14101;DHT22;7127;49.372;8.166;2023-06-26T14:32:06;34.00;26.00
14101;DHT22;7127;49.372;8.166;2023-06-26T14:34:33;34.00;25.80
14101;DHT22;7127;49.372;8.166;2023-06-26T14:37:00;34.00;25.30
14101;DHT22;7127;49.372;8.166;2023-06-26T14:39:27;33.80;25.10
14101;DHT22;7127;49.372;8.166;2023-06-26T14:41:54;34.00;25.10
14101;DHT22;7127;49.372;8.166;2023-06-26T14:44:22;33.80;24.90
14101;DHT22;7127;49.372;8.166;2023-06-26T14:46:49;33.80;25.00
14101;DHT22;7127;49.372;8.166;2023-06-26T14:49:16;33.90;24.70
14101;DHT22;7127;49.372;8.166;2023-06-26T14:51:44;33.80;24.80
14101;DHT22;7127;49.372;8.166;2023-06-26T14:54:11;33.70;25.10
14101;DHT22;7127;49.372;8.166;2023-06-26T14:56:38;33.70;24.50
14101;DHT22;7127;49.372;8.166;2023-06-26T14:59:04;33.80;24.30
14101;DHT22;7127;49.372;8.166;2023-06-26T15:01:35;33.70;24.50
14101;DHT22;7127;49.372;8.166;2023-06-26T15:04:02;33.70;24.60
14101;DHT22;7127;49.372;8.166;2023-06-26T15:06:29;33.80;24.60
14101;DHT22;7127;49.372;8.166;2023-06-26T15:08:56;33.80;24.60
14101;DHT22;7127;49.372;8.166;2023-06-26T15:11:23;33.80;24.00
14101;DHT22;7127;49.372;8.166;2023-06-26T15:13:50;33.70;23.90
14101;DHT22;7127;49.372;8.166;2023-06-26T15:16:16;33.70;23.80
14101;DHT22;7127;49.372;8.166;2023-06-26T15:18:45;33.80;23.90
14101;DHT22;7127;49.372;8.166;2023-06-26T15:21:12;33.80;23.70
14101;DHT22;7127;49.372;8.166;2023-06-26T15:23:38;33.70;23.80
14101;DHT22;7127;49.372;8.166;2023-06-26T15:26:05;33.70;23.70
14101;DHT22;7127;49.372;8.166;2023-06-26T15:28:32;33.70;23.60
14101;DHT22;7127;49.372;8.166;2023-06-26T15:30:59;33.70;23.70
14101;DHT22;7127;49.372;8.166;2023-06-26T15:33:26;33.60;23.70
14101;DHT22;7127;49.372;8.166;2023-06-26T15:35:54;33.60;23.70
14101;DHT22;7127;49.372;8.166;2023-06-26T15:38:21;33.60;23.60
14101;DHT22;7127;49.372;8.166;2023-06-26T15:40:48;33.70;23.60
14101;DHT22;7127;49.372;8.166;2023-06-26T15:43:15;33.50;23.30
14101;DHT22;7127;49.372;8.166;2023-06-26T15:45:42;33.50;23.50
14101;DHT22;7127;49.372;8.166;2023-06-26T15:48:08;33.50;23.40
14101;DHT22;7127;49.372;8.166;2023-06-26T15:50:35;33.50;23.40